Time;durP1;ratioP1;P1;durP2;ratioP2;P2;SDS_P1;SDS_P2;PMS_P1;PMS_P2;Temp;Humidity;BMP_temperature;BMP_pressure;BME280_temperature;BME280_humidity;BME280_pressure;Samples;Min_cycle;Max_cycle;Signal;HPM_P1;HPM_P2
2022/09/22 00:01:31;;;;;;;2.30;0.95;;;11.00;69.20;;;;;;5041796;28;20021;-65
2022/09/22 00:04:00;;;;;;;2.63;1.20;;;10.90;69.10;;;;;;5038882;28;20020;-66
2022/09/22 00:06:31;;;;;;;1.58;1.20;;;11.00;69.20;;;;;;5040061;28;20526;-65
2022/09/22 00:08:59;;;;;;;1.30;1.20;;;11.00;69.30;;;;;;5032985;28;20029;-66
2022/09/22 00:11:35;;;;;;;1.50;1.20;;;10.90;69.20;;;;;;5034433;28;20029;-66
2022/09/22 00:14:13;;;;;;;1.95;1.20;;;10.90;69.20;;;;;;5034853;28;20036;-67
2022/09/22 00:16:44;;;;;;;1.58;1.30;;;10.90;69.10;;;;;;5031691;28;20028;-67
2022/09/22 00:19:13;;;;;;;1.70;1.20;;;10.90;69.10;;;;;;5048256;28;20082;-67
2022/09/22 00:21:39;;;;;;;1.80;1.27;;;10.90;69.20;;;;;;5048379;28;20681;-66
2022/09/22 00:24:08;;;;;;;1.40;1.30;;;10.90;69.40;;;;;;5033562;28;20022;-66
2022/09/22 00:26:34;;;;;;;2.60;1.50;;;10.90;69.40;;;;;;5030316;28;20036;-66
2022/09/22 00:29:00;;;;;;;2.20;1.48;;;10.90;69.40;;;;;;5036544;28;20479;-66
2022/09/22 00:31:27;;;;;;;3.17;1.60;;;10.90;69.30;;;;;;5042878;28;20025;-66
2022/09/22 00:33:54;;;;;;;3.65;1.60;;;10.90;69.30;;;;;;5034251;28;20017;-66
2022/09/22 00:36:22;;;;;;;2.78;1.70;;;10.90;69.30;;;;;;5033995;28;20567;-66
2022/09/22 00:38:51;;;;;;;2.22;1.52;;;10.90;69.30;;;;;;5031343;28;20045;-66
2022/09/22 00:41:23;;;;;;;2.70;1.70;;;10.80;69.30;;;;;;5034953;28;20021;-66
2022/09/22 00:44:11;;;;;;;1.75;1.38;;;10.80;69.40;;;;;;5043969;28;20025;-66
2022/09/22 00:46:40;;;;;;;3.47;1.70;;;10.80;69.40;;;;;;5045646;28;20048;-66
2022/09/22 00:49:07;;;;;;;3.33;1.70;;;10.80;69.40;;;;;;5034140;28;20468;-66
2022/09/22 00:51:38;;;;;;;1.40;1.30;;;10.80;69.50;;;;;;5039541;28;20035;-66
2022/09/22 00:54:08;;;;;;;2.97;1.53;;;10.80;69.60;;;;;;5034230;28;20531;-66
2022/09/22 00:56:42;;;;;;;2.80;1.92;;;10.70;69.60;;;;;;5030147;28;20037;-66
2022/09/22 00:59:13;;;;;;;2.22;1.80;;;10.70;69.70;;;;;;5044293;28;20488;-65
2022/09/22 01:01:39;;;;;;;2.53;1.95;;;10.70;69.70;;;;;;5035761;28;20091;-66
2022/09/22 01:04:05;;;;;;;3.20;1.92;;;10.70;69.70;;;;;;5041900;28;20022;-66
2022/09/22 01:06:33;;;;;;;2.35;1.90;;;10.70;69.80;;;;;;5029580;28;20163;-66
2022/09/22 01:09:00;;;;;;;3.97;2.40;;;10.70;69.70;;;;;;5048750;28;20028;-66
2022/09/22 01:11:27;;;;;;;3.25;2.10;;;10.60;69.70;;;;;;5045446;28;20036;-66
2022/09/22 01:14:24;;;;;;;3.33;1.90;;;10.70;69.70;;;;;;5043642;28;20024;-66
2022/09/22 01:17:08;;;;;;;3.17;1.85;;;10.70;69.70;;;;;;5046751;28;20044;-66
2022/09/22 01:20:03;;;;;;;4.55;2.40;;;10.60;69.50;;;;;;5047954;28;20048;-66
2022/09/22 01:22:55;;;;;;;2.38;1.92;;;10.60;69.50;;;;;;5043367;28;20037;-66
2022/09/22 01:25:51;;;;;;;2.33;2.10;;;10.60;69.60;;;;;;5044794;28;20128;-66
2022/09/22 01:28:42;;;;;;;3.78;2.03;;;10.60;69.70;;;;;;5036583;28;20029;-65
2022/09/22 01:31:15;;;;;;;2.28;1.88;;;10.60;69.70;;;;;;5052787;28;20033;-65
2022/09/22 01:33:49;;;;;;;2.30;1.80;;;10.60;69.70;;;;;;5040398;28;20068;-65
2022/09/22 01:36:31;;;;;;;3.28;1.83;;;10.60;69.70;;;;;;5040490;28;20033;-64
2022/09/22 01:39:00;;;;;;;4.32;1.90;;;10.50;69.70;;;;;;5050754;28;20025;-65
2022/09/22 01:41:49;;;;;;;4.32;2.10;;;10.60;69.80;;;;;;5033983;28;20029;-65
2022/09/22 01:44:24;;;;;;;3.60;2.08;;;10.50;69.70;;;;;;5039638;28;20021;-66
2022/09/22 01:46:54;;;;;;;4.10;1.90;;;10.50;69.70;;;;;;5042516;28;20021;-65
2022/09/22 01:49:22;;;;;;;2.58;1.70;;;10.50;69.70;;;;;;5033959;28;20029;-66
2022/09/22 01:51:57;;;;;;;3.15;2.00;;;10.50;69.70;;;;;;5031986;28;20036;-65
2022/09/22 01:54:35;;;;;;;2.35;1.80;;;10.50;69.70;;;;;;5047183;28;20021;-65
2022/09/22 01:57:25;;;;;;;2.58;1.98;;;10.50;69.60;;;;;;5036829;28;20061;-65
2022/09/22 01:59:55;;;;;;;2.20;1.77;;;10.50;69.50;;;;;;5031518;28;20494;-65
2022/09/22 02:02:36;;;;;;;3.33;1.70;;;10.50;69.50;;;;;;5043820;28;20500;-66
2022/09/22 02:05:07;;;;;;;2.58;1.75;;;10.50;69.60;;;;;;5036173;28;20025;-65
2022/09/22 02:07:37;;;;;;;1.98;1.65;;;10.50;69.50;;;;;;5041676;28;20036;-65
2022/09/22 02:10:08;;;;;;;2.75;1.60;;;10.40;69.50;;;;;;5042428;28;20026;-65
2022/09/22 02:12:35;;;;;;;1.67;1.40;;;10.40;69.60;;;;;;5044115;28;20040;-66
2022/09/22 02:15:02;;;;;;;2.58;1.60;;;10.40;69.70;;;;;;5045243;28;20491;-66
2022/09/22 02:17:28;;;;;;;2.20;1.70;;;10.40;69.80;;;;;;5036652;28;20032;-65
2022/09/22 02:19:54;;;;;;;2.85;1.65;;;10.40;69.90;;;;;;5046919;28;20095;-66
2022/09/22 02:22:20;;;;;;;3.72;1.70;;;10.40;69.90;;;;;;5039712;28;20036;-66
2022/09/22 02:24:46;;;;;;;4.20;1.60;;;10.30;69.90;;;;;;5032138;28;20017;-66
2022/09/22 02:27:35;;;;;;;2.80;1.60;;;10.30;69.90;;;;;;5045436;28;20044;-66
2022/09/22 02:30:08;;;;;;;2.42;1.60;;;10.30;70.10;;;;;;5042399;28;20029;-66
2022/09/22 02:32:37;;;;;;;2.15;1.50;;;10.30;70.10;;;;;;5037933;28;20509;-67
2022/09/22 02:35:03;;;;;;;1.55;1.42;;;10.30;70.10;;;;;;5036215;28;20048;-66
2022/09/22 02:37:49;;;;;;;2.38;1.58;;;10.30;70.10;;;;;;5043290;28;20104;-65
2022/09/22 02:40:50;;;;;;;2.95;1.80;;;10.30;70.10;;;;;;5042521;28;20025;-65
2022/09/22 02:43:45;;;;;;;2.08;1.52;;;10.30;70.10;;;;;;5046497;28;20392;-65
2022/09/22 02:46:28;;;;;;;2.22;1.60;;;10.30;70.10;;;;;;5032155;28;20029;-65
2022/09/22 02:49:02;;;;;;;1.80;1.40;;;10.20;70.30;;;;;;5045383;28;20032;-65
2022/09/22 02:51:32;;;;;;;1.85;1.50;;;10.10;70.30;;;;;;5035752;28;20437;-65
2022/09/22 02:53:57;;;;;;;2.05;1.48;;;10.10;70.40;;;;;;5034252;28;20591;-65
2022/09/22 02:56:23;;;;;;;2.17;1.60;;;10.10;70.50;;;;;;5031930;28;20116;-64
2022/09/22 02:58:49;;;;;;;1.85;1.63;;;10.10;70.50;;;;;;5040005;28;20391;-65
2022/09/22 03:01:14;;;;;;;2.25;1.50;;;10.10;70.60;;;;;;5046260;28;20060;-65
2022/09/22 03:03:40;;;;;;;1.70;1.58;;;10.10;70.70;;;;;;5040479;28;20017;-65
2022/09/22 03:06:05;;;;;;;3.22;1.65;;;10.00;70.70;;;;;;5032267;28;20526;-65
2022/09/22 03:08:31;;;;;;;1.88;1.40;;;10.10;70.80;;;;;;5033052;28;20707;-66
2022/09/22 03:10:57;;;;;;;2.15;1.60;;;10.00;70.70;;;;;;5044612;28;20029;-66
2022/09/22 03:13:22;;;;;;;1.90;1.52;;;10.00;70.80;;;;;;5036946;28;20034;-66
2022/09/22 03:15:48;;;;;;;2.67;1.60;;;10.00;70.80;;;;;;5035407;28;20029;-66
2022/09/22 03:18:14;;;;;;;2.67;1.67;;;10.00;70.80;;;;;;5031313;28;20037;-66
2022/09/22 03:20:40;;;;;;;2.70;1.70;;;10.00;70.80;;;;;;5036490;28;20026;-66
2022/09/22 03:23:05;;;;;;;2.38;1.50;;;10.00;70.90;;;;;;5035783;28;20735;-66
2022/09/22 03:25:31;;;;;;;2.20;1.60;;;10.00;70.80;;;;;;5032369;28;20025;-66
2022/09/22 03:27:56;;;;;;;3.25;1.70;;;10.00;70.80;;;;;;5031055;28;20053;-66
2022/09/22 03:30:22;;;;;;;2.20;1.90;;;10.00;70.80;;;;;;5032013;28;20040;-65
2022/09/22 03:32:47;;;;;;;2.08;1.80;;;10.00;70.80;;;;;;5036568;28;20072;-66
2022/09/22 03:35:13;;;;;;;1.90;1.50;;;10.00;70.80;;;;;;5039786;28;20063;-66
2022/09/22 03:37:38;;;;;;;2.83;1.50;;;10.00;70.80;;;;;;5050748;28;20064;-66
2022/09/22 03:40:04;;;;;;;1.95;1.65;;;10.00;70.70;;;;;;5042521;28;20029;-66
2022/09/22 03:42:31;;;;;;;2.35;1.50;;;10.10;70.80;;;;;;5046342;28;20032;-66
2022/09/22 03:44:57;;;;;;;2.70;1.60;;;10.00;70.70;;;;;;5049088;28;20025;-66
2022/09/22 03:47:23;;;;;;;3.75;1.70;;;10.00;70.80;;;;;;5048591;28;20086;-66
2022/09/22 03:49:48;;;;;;;1.88;1.60;;;10.00;70.70;;;;;;5045810;28;20477;-66
2022/09/22 03:52:14;;;;;;;3.28;1.58;;;10.00;70.80;;;;;;5031100;28;20029;-65
2022/09/22 03:54:39;;;;;;;2.83;1.48;;;10.00;70.80;;;;;;5030781;28;20025;-66
2022/09/22 03:57:05;;;;;;;2.92;1.58;;;10.00;70.80;;;;;;5049135;28;20029;-66
2022/09/22 03:59:31;;;;;;;2.70;1.90;;;10.00;70.80;;;;;;5044372;28;20100;-66
2022/09/22 04:01:56;;;;;;;3.03;1.88;;;10.00;70.80;;;;;;5037078;28;20030;-66
2022/09/22 04:04:22;;;;;;;2.97;1.83;;;10.00;70.90;;;;;;5047971;28;20028;-66
2022/09/22 04:06:47;;;;;;;1.95;1.75;;;10.00;71.00;;;;;;5040947;28;20028;-66
2022/09/22 04:09:16;;;;;;;3.05;1.70;;;9.90;71.00;;;;;;5050106;28;20017;-65
2022/09/22 04:11:42;;;;;;;3.15;1.80;;;9.90;71.10;;;;;;5037428;28;20020;-65
2022/09/22 04:14:08;;;;;;;3.38;1.83;;;9.90;71.10;;;;;;5032421;28;20025;-66
2022/09/22 04:16:33;;;;;;;4.20;1.90;;;9.90;71.00;;;;;;5045284;28;20104;-66
2022/09/22 04:18:59;;;;;;;2.55;1.83;;;9.90;71.10;;;;;;5039910;28;20033;-65
2022/09/22 04:21:25;;;;;;;4.22;2.05;;;9.90;71.10;;;;;;5037924;28;20029;-65
2022/09/22 04:23:50;;;;;;;3.13;1.70;;;9.90;71.10;;;;;;5042755;28;20044;-65
2022/09/22 04:26:16;;;;;;;3.50;1.90;;;10.00;71.10;;;;;;5049550;28;20360;-65
2022/09/22 04:28:41;;;;;;;3.92;1.70;;;9.90;71.00;;;;;;5046402;28;20503;-65
2022/09/22 04:31:07;;;;;;;3.20;1.80;;;10.00;71.10;;;;;;5036513;28;20421;-65
2022/09/22 04:33:32;;;;;;;2.55;1.75;;;10.00;71.00;;;;;;5043126;28;20694;-65
2022/09/22 04:35:58;;;;;;;2.72;1.75;;;9.90;70.90;;;;;;5047530;28;20029;-65
2022/09/22 04:38:24;;;;;;;2.65;1.80;;;10.00;70.90;;;;;;5031405;28;20025;-65
2022/09/22 04:40:51;;;;;;;1.83;1.70;;;9.90;70.90;;;;;;5033752;28;20483;-66
2022/09/22 04:43:17;;;;;;;2.53;1.75;;;10.00;70.90;;;;;;5042648;28;20026;-66
2022/09/22 04:45:47;;;;;;;3.05;1.65;;;10.00;70.90;;;;;;5047681;28;20045;-66
2022/09/22 04:48:13;;;;;;;4.07;2.00;;;9.90;70.80;;;;;;5049350;28;20411;-66
2022/09/22 04:50:39;;;;;;;3.58;2.13;;;10.00;71.60;;;;;;5041087;28;20171;-65
2022/09/22 04:53:05;;;;;;;2.28;1.92;;;10.00;71.00;;;;;;5048847;28;20576;-65
2022/09/22 04:55:31;;;;;;;2.80;1.92;;;10.00;71.00;;;;;;5049109;28;20388;-65
2022/09/22 04:57:56;;;;;;;2.80;1.90;;;9.90;70.90;;;;;;5051658;28;20021;-65
2022/09/22 05:00:24;;;;;;;3.38;2.20;;;9.90;70.90;;;;;;5048423;28;20029;-65
2022/09/22 05:02:50;;;;;;;2.33;2.00;;;9.90;70.80;;;;;;5046287;28;20021;-65
2022/09/22 05:05:16;;;;;;;3.75;2.40;;;10.00;71.00;;;;;;5053448;28;20445;-65
2022/09/22 05:07:47;;;;;;;3.08;2.13;;;9.90;71.00;;;;;;5038474;28;20033;-65
2022/09/22 05:10:16;;;;;;;3.38;2.20;;;9.90;71.00;;;;;;5043334;28;20573;-65
2022/09/22 05:12:42;;;;;;;4.53;2.30;;;9.90;71.10;;;;;;5050975;28;20430;-65
2022/09/22 05:15:09;;;;;;;3.40;2.20;;;9.80;71.20;;;;;;5038861;28;20026;-65
2022/09/22 05:17:35;;;;;;;2.88;2.33;;;9.80;71.20;;;;;;5042884;28;20028;-65
2022/09/22 05:20:05;;;;;;;3.05;2.30;;;9.80;71.20;;;;;;5053688;28;20096;-65
2022/09/22 05:22:31;;;;;;;4.03;2.58;;;9.80;71.30;;;;;;5033588;28;20435;-65
2022/09/22 05:24:56;;;;;;;3.20;2.45;;;9.80;71.30;;;;;;5033504;28;20388;-66
2022/09/22 05:27:22;;;;;;;3.58;2.50;;;9.70;71.30;;;;;;5042477;28;20029;-66
2022/09/22 05:29:48;;;;;;;3.50;2.88;;;9.70;71.40;;;;;;5048712;28;20025;-66
2022/09/22 05:32:13;;;;;;;4.35;2.30;;;9.70;71.40;;;;;;5043152;28;20029;-65
2022/09/22 05:34:39;;;;;;;3.95;2.60;;;9.70;71.30;;;;;;5041366;28;20043;-66
2022/09/22 05:37:05;;;;;;;3.65;2.80;;;9.70;71.40;;;;;;5038120;28;20021;-66
2022/09/22 05:39:30;;;;;;;3.15;2.85;;;9.70;71.40;;;;;;5034278;28;20029;-65
2022/09/22 05:41:56;;;;;;;3.13;2.63;;;9.70;71.40;;;;;;5034172;28;20100;-66
2022/09/22 05:44:22;;;;;;;3.50;2.83;;;9.70;71.40;;;;;;5034539;28;20053;-65
2022/09/22 05:46:48;;;;;;;3.55;2.60;;;9.70;71.40;;;;;;5035038;28;20018;-66
2022/09/22 05:49:14;;;;;;;4.68;3.10;;;9.70;71.50;;;;;;5049111;28;20157;-66
2022/09/22 05:51:39;;;;;;;3.95;2.70;;;9.80;71.60;;;;;;5048139;28;20028;-65
2022/09/22 05:54:05;;;;;;;8.43;3.25;;;9.80;71.60;;;;;;5043248;28;20063;-66
2022/09/22 05:56:31;;;;;;;4.75;3.10;;;9.80;71.70;;;;;;5039546;28;20423;-66
2022/09/22 05:58:57;;;;;;;4.35;3.00;;;9.90;71.70;;;;;;5047055;28;20029;-65
2022/09/22 06:01:22;;;;;;;5.50;3.60;;;10.00;72.00;;;;;;5039809;28;20029;-65
2022/09/22 06:03:48;;;;;;;4.43;3.45;;;10.20;72.20;;;;;;5048225;28;20018;-64
2022/09/22 06:06:13;;;;;;;5.65;3.50;;;10.30;72.10;;;;;;5045285;28;20045;-65
2022/09/22 06:08:40;;;;;;;5.03;3.90;;;10.70;71.60;;;;;;5032571;28;20384;-65
2022/09/22 06:11:05;;;;;;;6.60;4.72;;;11.00;70.60;;;;;;5041577;28;20020;-65
2022/09/22 06:13:31;;;;;;;5.78;4.10;;;11.20;70.00;;;;;;5051911;28;20036;-65
2022/09/22 06:15:59;;;;;;;6.70;4.38;;;11.40;69.60;;;;;;5051713;28;20021;-65
2022/09/22 06:18:25;;;;;;;5.35;4.15;;;11.40;69.50;;;;;;5051361;28;20368;-65
2022/09/22 06:20:51;;;;;;;5.28;4.70;;;11.50;69.40;;;;;;5051752;28;20025;-65
2022/09/22 06:23:16;;;;;;;5.68;4.80;;;11.60;69.40;;;;;;5052052;28;20537;-65
2022/09/22 06:25:42;;;;;;;5.50;4.45;;;11.70;69.40;;;;;;5045397;28;20053;-65
2022/09/22 06:28:12;;;;;;;5.53;4.65;;;11.70;69.30;;;;;;5038245;28;20025;-66
2022/09/22 06:30:39;;;;;;;6.20;4.93;;;11.80;69.30;;;;;;5043574;28;20029;-65
2022/09/22 06:33:05;;;;;;;7.93;5.00;;;11.90;69.30;;;;;;5041649;28;20025;-66
2022/09/22 06:35:36;;;;;;;6.35;5.45;;;12.00;69.40;;;;;;5032974;28;20427;-65
2022/09/22 06:38:06;;;;;;;7.73;5.30;;;12.00;69.30;;;;;;5035857;28;20026;-66
2022/09/22 06:40:34;;;;;;;6.25;4.95;;;12.10;69.20;;;;;;5039607;28;20029;-65
2022/09/22 06:43:14;;;;;;;8.57;5.85;;;12.20;69.10;;;;;;5042006;28;20447;-65
2022/09/22 06:45:40;;;;;;;7.30;5.82;;;12.30;69.10;;;;;;5033674;28;20035;-63
2022/09/22 06:48:06;;;;;;;6.55;5.60;;;12.40;69.10;;;;;;5035814;28;20029;-64
2022/09/22 06:50:31;;;;;;;6.05;5.05;;;12.50;69.10;;;;;;5033588;28;20032;-64
2022/09/22 06:53:02;;;;;;;6.05;4.80;;;12.50;68.90;;;;;;5042176;28;20072;-64
2022/09/22 06:55:29;;;;;;;7.07;5.55;;;12.60;68.90;;;;;;5038127;28;20117;-65
2022/09/22 06:58:00;;;;;;;6.15;4.85;;;12.70;68.90;;;;;;5034633;28;20032;-66
2022/09/22 07:00:31;;;;;;;7.20;5.70;;;12.70;68.90;;;;;;5039180;28;20017;-65
2022/09/22 07:03:07;;;;;;;8.32;6.47;;;12.80;68.80;;;;;;5044834;28;20079;-65
2022/09/22 07:05:33;;;;;;;6.90;6.18;;;12.80;68.80;;;;;;5050417;28;20044;-66
2022/09/22 07:07:59;;;;;;;7.97;5.90;;;12.80;69.10;;;;;;5032691;28;20030;-65
2022/09/22 07:10:25;;;;;;;8.10;5.97;;;12.90;69.10;;;;;;5036064;28;20077;-64
2022/09/22 07:12:51;;;;;;;7.05;5.60;;;12.90;69.10;;;;;;5047355;28;20032;-65
2022/09/22 07:15:16;;;;;;;8.13;6.72;;;13.00;69.10;;;;;;5049447;28;20025;-65
2022/09/22 07:17:42;;;;;;;8.70;6.55;;;13.10;69.20;;;;;;5039849;28;20064;-65
2022/09/22 07:20:07;;;;;;;9.18;6.53;;;13.10;69.10;;;;;;5035699;28;20021;-65
2022/09/22 07:22:38;;;;;;;9.55;6.97;;;13.20;69.20;;;;;;5042040;28;20017;-65
2022/09/22 07:25:07;;;;;;;8.07;6.32;;;13.30;69.20;;;;;;5043838;28;20021;-65
2022/09/22 07:27:33;;;;;;;7.65;6.00;;;13.30;68.90;;;;;;5037831;28;20029;-66
2022/09/22 07:30:00;;;;;;;6.50;5.32;;;13.40;68.90;;;;;;5047540;28;20025;-65
2022/09/22 07:32:29;;;;;;;8.30;6.25;;;13.50;68.60;;;;;;5045436;28;20510;-66
2022/09/22 07:34:56;;;;;;;11.32;6.53;;;13.50;68.40;;;;;;5043699;28;20025;-66
2022/09/22 07:37:23;;;;;;;6.18;5.05;;;13.50;68.40;;;;;;5044871;28;20029;-65
2022/09/22 07:39:48;;;;;;;9.02;5.63;;;13.60;68.40;;;;;;5040215;28;20017;-65
2022/09/22 07:42:15;;;;;;;9.60;7.40;;;13.70;68.30;;;;;;5041422;28;20033;-64
2022/09/22 07:50:09;;;;;;;8.00;6.25;;;13.80;68.10;;;;;;5043584;28;20043;-65
2022/09/22 07:52:35;;;;;;;10.32;7.85;;;13.80;68.10;;;;;;5039430;28;20403;-65
2022/09/22 07:55:01;;;;;;;11.00;7.10;;;13.90;68.10;;;;;;5043204;28;20530;-65
2022/09/22 07:57:29;;;;;;;8.52;6.35;;;13.90;68.10;;;;;;5041720;28;20044;-65
2022/09/22 07:59:56;;;;;;;7.32;5.90;;;14.00;68.10;;;;;;5038365;28;20057;-65
2022/09/22 08:02:24;;;;;;;7.15;5.38;;;14.00;67.90;;;;;;5047919;28;20024;-65
2022/09/22 08:04:49;;;;;;;6.63;4.93;;;14.20;67.80;;;;;;5036592;28;20026;-65
2022/09/22 08:07:15;;;;;;;8.60;5.70;;;14.30;67.50;;;;;;5048999;28;20029;-65
2022/09/22 08:09:41;;;;;;;7.10;5.35;;;14.40;67.40;;;;;;5051124;28;20032;-65
2022/09/22 08:12:06;;;;;;;6.65;4.97;;;14.40;67.10;;;;;;5036076;28;20446;-65
2022/09/22 08:14:32;;;;;;;8.57;6.78;;;14.50;67.00;;;;;;5042407;28;20120;-65
2022/09/22 08:16:57;;;;;;;7.65;5.20;;;14.50;67.00;;;;;;5041421;28;20048;-65
2022/09/22 08:19:23;;;;;;;10.00;6.22;;;14.60;66.90;;;;;;5050953;28;20400;-65
2022/09/22 08:21:52;;;;;;;11.02;5.75;;;14.60;66.70;;;;;;5048267;28;20028;-66
2022/09/22 08:24:22;;;;;;;7.47;5.90;;;14.60;66.50;;;;;;5048876;28;20124;-65
2022/09/22 08:26:49;;;;;;;7.70;6.03;;;14.70;66.50;;;;;;5043982;28;20082;-66
2022/09/22 08:29:14;;;;;;;7.78;5.47;;;14.80;66.60;;;;;;5047949;28;20099;-65
2022/09/22 08:31:41;;;;;;;12.02;6.60;;;14.90;67.30;;;;;;5034359;28;20491;-65
2022/09/22 08:34:08;;;;;;;7.57;4.38;;;15.00;66.20;;;;;;5045521;28;20021;-65
2022/09/22 08:36:33;;;;;;;9.07;5.82;;;15.10;66.10;;;;;;5049060;28;20063;-65
2022/09/22 08:39:00;;;;;;;7.38;5.10;;;15.10;65.80;;;;;;5048528;28;20067;-65
2022/09/22 08:41:40;;;;;;;8.52;6.28;;;15.10;65.70;;;;;;5061277;28;20016;-66
2022/09/22 08:44:05;;;;;;;6.88;5.30;;;15.20;65.60;;;;;;5038864;28;20033;-65
2022/09/22 08:46:34;;;;;;;7.35;4.90;;;15.20;65.30;;;;;;5056413;28;20036;-65
2022/09/22 08:52:34;;;;;;;8.95;4.80;;;15.30;65.10;;;;;;5045244;28;20511;-65
2022/09/22 08:55:01;;;;;;;6.57;4.40;;;15.40;65.00;;;;;;5062175;28;20570;-65
2022/09/22 08:57:43;;;;;;;9.05;5.90;;;15.50;64.90;;;;;;5052792;28;20039;-66
2022/09/22 09:00:19;;;;;;;5.93;4.30;;;15.50;64.70;;;;;;5042927;28;20075;-66
2022/09/22 09:03:06;;;;;;;6.95;4.75;;;15.60;64.60;;;;;;5042897;28;20057;-66
2022/09/22 09:05:46;;;;;;;5.95;3.83;;;15.70;64.70;;;;;;5043418;28;20043;-66
2022/09/22 09:08:38;;;;;;;5.30;4.20;;;15.80;64.50;;;;;;5035056;28;20033;-66
2022/09/22 09:11:23;;;;;;;5.68;4.25;;;15.80;64.10;;;;;;5048853;28;20020;-66
2022/09/22 09:13:55;;;;;;;6.70;4.60;;;15.90;64.30;;;;;;5056578;28;20028;-64
2022/09/22 09:16:39;;;;;;;4.50;3.30;;;16.00;64.10;;;;;;5053784;28;20407;-64
2022/09/22 09:19:22;;;;;;;4.75;3.45;;;16.00;63.80;;;;;;5060805;28;20036;-64
2022/09/22 09:21:50;;;;;;;7.32;3.97;;;16.00;63.40;;;;;;5047417;28;20031;-65
2022/09/22 09:24:36;;;;;;;6.00;3.88;;;16.10;62.90;;;;;;5041310;28;20031;-65
2022/09/22 09:27:11;;;;;;;6.82;3.80;;;16.10;62.70;;;;;;5035266;28;20501;-65
2022/09/22 09:30:05;;;;;;;7.50;3.70;;;16.20;63.00;;;;;;5047867;28;20594;-64
2022/09/22 09:32:47;;;;;;;5.72;4.57;;;16.20;63.00;;;;;;5038410;28;20607;-64
2022/09/22 09:35:23;;;;;;;4.88;3.40;;;16.40;62.90;;;;;;5044043;28;20113;-65
2022/09/22 09:37:50;;;;;;;5.20;3.60;;;16.50;62.70;;;;;;5046315;28;20045;-64
2022/09/22 09:40:18;;;;;;;4.78;3.20;;;16.60;61.90;;;;;;5045407;28;20021;-65
2022/09/22 09:42:49;;;;;;;6.03;3.20;;;16.60;61.30;;;;;;5051115;28;20020;-66
2022/09/22 09:45:17;;;;;;;5.15;3.50;;;16.70;61.10;;;;;;5043220;28;20018;-66
2022/09/22 09:47:46;;;;;;;3.72;2.63;;;16.80;61.00;;;;;;5048305;28;20024;-65
2022/09/22 09:50:12;;;;;;;4.30;2.50;;;16.90;61.10;;;;;;5046181;28;20032;-65
2022/09/22 09:52:38;;;;;;;4.35;2.60;;;16.90;60.00;;;;;;5049669;28;20033;-65
2022/09/22 09:55:19;;;;;;;6.47;3.58;;;16.90;59.70;;;;;;5047550;28;20372;-65
2022/09/22 09:58:05;;;;;;;5.75;3.28;;;16.90;59.40;;;;;;5048703;28;20037;-65
2022/09/22 10:00:33;;;;;;;3.92;2.50;;;16.90;59.00;;;;;;5046912;28;20160;-65
2022/09/22 10:03:04;;;;;;;5.57;3.40;;;17.00;59.30;;;;;;5045604;28;20071;-67
2022/09/22 10:05:36;;;;;;;5.43;2.90;;;17.10;59.50;;;;;;5048567;28;20553;-66
2022/09/22 10:08:23;;;;;;;2.55;1.75;;;17.10;58.60;;;;;;5053440;28;20034;-65
2022/09/22 10:10:57;;;;;;;2.30;1.60;;;17.20;58.10;;;;;;5042148;28;20027;-64
2022/09/22 10:13:42;;;;;;;6.43;2.83;;;17.20;57.30;;;;;;5047027;28;20041;-65
2022/09/22 10:16:25;;;;;;;4.32;2.33;;;17.10;56.30;;;;;;5059213;28;20031;-64
2022/09/22 10:19:02;;;;;;;6.03;3.28;;;17.20;56.70;;;;;;5037358;28;20641;-64
2022/09/22 10:21:28;;;;;;;4.75;2.53;;;17.30;56.80;;;;;;5040324;28;20024;-65
2022/09/22 10:23:56;;;;;;;3.85;2.45;;;17.30;56.90;;;;;;5066172;28;20030;-65
2022/09/22 10:26:28;;;;;;;6.45;3.47;;;17.40;57.00;;;;;;5056308;28;20113;-65
2022/09/22 10:29:13;;;;;;;4.68;2.88;;;17.50;57.00;;;;;;5042790;28;20108;-64
2022/09/22 10:31:40;;;;;;;5.20;3.17;;;17.50;57.20;;;;;;5043503;28;20425;-65
2022/09/22 10:34:27;;;;;;;5.72;3.40;;;17.50;57.20;;;;;;5040103;28;20487;-65
2022/09/22 10:36:53;;;;;;;6.07;2.80;;;17.60;56.00;;;;;;5050972;28;20091;-64
2022/09/22 10:39:26;;;;;;;5.90;3.70;;;17.60;56.40;;;;;;5048615;28;20017;-65
2022/09/22 10:41:51;;;;;;;;;;;17.60;56.40;;;;;;5034789;28;20033;-65
2022/09/22 10:44:25;;;;;;;5.30;3.63;;;17.60;56.50;;;;;;5051429;28;19909;-65
2022/09/22 10:47:37;;;;;;;6.22;4.05;;;17.70;57.10;;;;;;5047274;28;20376;-65
2022/09/22 10:50:12;;;;;;;3.57;2.63;;;17.70;57.10;;;;;;5050510;28;20035;-64
2022/09/22 10:53:01;;;;;;;6.45;3.95;;;17.80;57.00;;;;;;5053538;28;20259;-65
2022/09/22 10:56:27;;;;;;;7.57;2.80;;;17.90;55.30;;;;;;5045480;28;20475;-65
2022/09/22 10:59:14;;;;;;;4.40;2.80;;;17.90;55.00;;;;;;5050540;28;20033;-65
2022/09/22 11:02:36;;;;;;;5.03;3.10;;;17.90;55.20;;;;;;5054983;28;20020;-65
2022/09/22 11:05:05;;;;;;;5.72;3.20;;;18.10;54.70;;;;;;5064438;28;20032;-65
2022/09/22 11:14:23;;;;;;;4.38;2.22;;;18.10;54.40;;;;;;5045749;28;20035;-65
2022/09/22 11:16:57;;;;;;;4.55;2.53;;;18.20;54.70;;;;;;5056445;28;20048;-65
2022/09/22 11:19:25;;;;;;;3.70;2.53;;;18.40;54.60;;;;;;5057748;28;20032;-65
2022/09/22 11:22:36;;;;;;;4.38;2.65;;;18.40;53.60;;;;;;5064652;28;20055;-64
2022/09/22 11:25:18;;;;;;;2.85;2.10;;;18.50;53.40;;;;;;5051131;28;20017;-64
2022/09/22 11:28:02;;;;;;;5.80;2.38;;;18.70;53.70;;;;;;5049355;28;20075;-65
2022/09/22 11:30:44;;;;;;;5.60;3.05;;;18.70;53.60;;;;;;5053634;28;20029;-65
2022/09/22 11:33:46;;;;;;;4.53;2.20;;;18.80;53.10;;;;;;5052944;28;20024;-65
2022/09/22 11:36:40;;;;;;;3.90;1.90;;;18.90;53.10;;;;;;5053722;28;20021;-65
2022/09/22 11:39:32;;;;;;;3.90;2.67;;;19.10;52.60;;;;;;5052094;28;20017;-65
2022/09/22 11:42:10;;;;;;;4.70;2.30;;;19.30;51.80;;;;;;5066128;28;20072;-65
2022/09/22 11:44:48;;;;;;;2.90;1.83;;;19.50;51.90;;;;;;5062011;28;20052;-65
2022/09/22 11:47:31;;;;;;;3.45;2.00;;;19.60;51.70;;;;;;5044408;28;20083;-65
2022/09/22 11:50:11;;;;;;;2.35;1.50;;;19.90;51.30;;;;;;5052157;28;20035;-65
2022/09/22 11:52:58;;;;;;;4.45;2.08;;;20.10;50.90;;;;;;5043823;28;20021;-65
2022/09/22 11:55:35;;;;;;;3.60;1.80;;;20.10;47.70;;;;;;5062237;28;20553;-65
2022/09/22 11:58:09;;;;;;;2.22;1.40;;;20.10;47.30;;;;;;5045235;28;20025;-65
2022/09/22 12:00:44;;;;;;;1.92;1.20;;;20.20;47.40;;;;;;5040652;28;20082;-65
2022/09/22 12:03:15;;;;;;;2.20;1.30;;;20.40;46.70;;;;;;5037601;28;20034;-65
2022/09/22 12:05:57;;;;;;;1.48;1.20;;;20.30;46.50;;;;;;5068314;28;20029;-66
2022/09/22 12:08:28;;;;;;;1.30;0.95;;;20.30;46.40;;;;;;5064075;28;20190;-65
2022/09/22 12:10:55;;;;;;;1.80;1.20;;;20.30;46.80;;;;;;5041312;28;20040;-66
2022/09/22 12:13:29;;;;;;;1.45;1.20;;;20.30;46.80;;;;;;5032831;28;20325;-65
2022/09/22 12:16:17;;;;;;;3.67;1.40;;;20.30;47.70;;;;;;5055663;28;20036;-65
2022/09/22 12:19:04;;;;;;;2.08;1.40;;;20.40;46.50;;;;;;5048017;28;20025;-65
2022/09/22 12:22:08;;;;;;;1.45;1.23;;;20.40;46.40;;;;;;5034808;28;20106;-65
2022/09/22 12:24:34;;;;;;;1.52;1.27;;;20.50;46.20;;;;;;5050472;28;20082;-65
2022/09/22 12:27:10;;;;;;;2.70;1.50;;;20.40;45.70;;;;;;5049332;28;20021;-65
2022/09/22 12:29:37;;;;;;;2.42;1.10;;;20.30;46.00;;;;;;5050366;28;20467;-65
2022/09/22 12:32:03;;;;;;;2.08;1.27;;;20.20;46.10;;;;;;5052354;28;20017;-65
2022/09/22 12:34:38;;;;;;;3.25;1.80;;;20.30;46.30;;;;;;5053865;28;20024;-65
2022/09/22 12:37:24;;;;;;;2.03;1.60;;;20.30;44.90;;;;;;5043432;28;20022;-65
2022/09/22 12:39:50;;;;;;;2.17;1.40;;;20.30;45.50;;;;;;5045022;28;20021;-65
2022/09/22 12:42:21;;;;;;;1.60;1.20;;;20.30;45.10;;;;;;5045877;28;20082;-65
2022/09/22 12:45:00;;;;;;;1.25;1.08;;;20.50;45.60;;;;;;5046431;28;20020;-66
2022/09/22 12:47:37;;;;;;;2.78;1.20;;;20.80;45.20;;;;;;5035370;28;20034;-66
2022/09/22 12:50:32;;;;;;;1.33;1.10;;;20.80;44.70;;;;;;5046012;28;20059;-65
2022/09/22 12:53:10;;;;;;;2.72;1.50;;;20.80;44.30;;;;;;5041706;28;20041;-65
2022/09/22 12:55:38;;;;;;;3.75;1.40;;;20.60;44.10;;;;;;5042818;28;20026;-65
2022/09/22 12:58:19;;;;;;;2.80;1.75;;;20.50;43.50;;;;;;5029749;28;20483;-65
2022/09/22 13:00:49;;;;;;;3.92;1.50;;;20.50;43.90;;;;;;5045756;28;20028;-65
2022/09/22 13:03:24;;;;;;;2.25;1.33;;;20.60;43.60;;;;;;5038886;28;20036;-65
2022/09/22 13:05:52;;;;;;;2.63;1.63;;;20.50;43.80;;;;;;5031720;28;20067;-65
2022/09/22 13:08:24;;;;;;;1.85;1.40;;;20.70;44.00;;;;;;5041851;28;20081;-65
2022/09/22 13:11:04;;;;;;;3.47;1.73;;;20.70;43.90;;;;;;5045299;28;20037;-65
2022/09/22 13:13:38;;;;;;;2.13;1.50;;;20.70;43.40;;;;;;5049065;28;20029;-65
2022/09/22 13:16:12;;;;;;;3.15;1.85;;;20.80;43.30;;;;;;5042747;28;20025;-66
2022/09/22 13:18:52;;;;;;;2.25;1.70;;;20.80;42.70;;;;;;5040596;28;20693;-65
2022/09/22 13:21:22;;;;;;;2.65;1.60;;;20.70;42.80;;;;;;5043727;28;20112;-66
2022/09/22 13:23:50;;;;;;;3.05;2.03;;;20.60;43.20;;;;;;5039392;28;20025;-65
2022/09/22 13:26:23;;;;;;;3.60;1.70;;;20.70;43.10;;;;;;5033371;28;20389;-66
2022/09/22 13:29:11;;;;;;;3.90;1.90;;;20.80;43.30;;;;;;5046997;28;20537;-65